createdAt,value
2018-12-16T00:02:26.689Z,15.93
2018-12-16T00:04:59.361Z,16.70
2018-12-16T00:07:31.499Z,17.60
2018-12-16T00:10:04.000Z,15.73
2018-12-16T00:12:36.017Z,16.50
2018-12-16T00:15:06.596Z,17.83
2018-12-16T00:17:37.117Z,16.03
2018-12-16T00:20:07.615Z,16.83
2018-12-16T00:22:40.019Z,17.07
2018-12-16T00:25:10.424Z,15.13
2018-12-16T00:27:40.790Z,16.07
2018-12-16T00:30:11.192Z,18.70
2018-12-16T00:32:41.591Z,16.87
2018-12-16T00:35:13.052Z,17.67
2018-12-16T00:37:43.455Z,17.13
2018-12-16T00:40:13.836Z,17.80
2018-12-16T00:42:45.772Z,16.90
2018-12-16T00:45:16.238Z,17.63
2018-12-16T00:47:47.576Z,18.77
2018-12-16T00:50:26.618Z,16.70
2018-12-16T00:52:57.038Z,17.80
2018-12-16T00:55:27.410Z,18.37
2018-12-16T00:57:57.825Z,17.33
2018-12-16T01:00:29.611Z,16.73
2018-12-16T01:03:01.446Z,17.67
2018-12-16T01:05:37.404Z,17.40
2018-12-16T01:08:09.519Z,16.47
2018-12-16T01:10:39.936Z,15.70
2018-12-16T01:13:10.304Z,16.73
2018-12-16T01:15:40.792Z,14.67
2018-12-16T01:18:11.253Z,15.57
2018-12-16T01:20:41.644Z,16.00
2018-12-16T01:23:12.028Z,14.60
2018-12-16T01:25:42.436Z,13.97
2018-12-16T01:28:12.833Z,14.27
2018-12-16T01:30:43.201Z,15.73
2018-12-16T01:33:13.605Z,14.70
2018-12-16T01:35:43.969Z,14.77
2018-12-16T01:38:14.382Z,15.80
2018-12-16T01:40:44.755Z,15.27
2018-12-16T01:43:15.218Z,15.20
2018-12-16T01:45:45.591Z,15.27
2018-12-16T01:48:15.996Z,14.43
2018-12-16T01:50:46.377Z,15.13
2018-12-16T01:53:16.775Z,13.57
2018-12-16T01:55:47.161Z,13.67
2018-12-16T01:58:17.539Z,14.03
2018-12-16T02:00:47.939Z,14.03
2018-12-16T02:03:18.319Z,14.70
2018-12-16T02:05:48.817Z,13.10
2018-12-16T02:08:19.188Z,14.27
2018-12-16T02:10:49.654Z,13.20
2018-12-16T02:13:20.031Z,13.07
2018-12-16T02:15:51.340Z,14.37
2018-12-16T02:18:21.736Z,13.23
2018-12-16T02:20:52.156Z,13.80
2018-12-16T02:23:22.554Z,12.33
2018-12-16T02:25:52.924Z,13.50
2018-12-16T02:28:23.329Z,13.00
2018-12-16T02:30:53.856Z,12.83
2018-12-16T02:33:24.945Z,13.17
2018-12-16T02:35:55.354Z,11.93
2018-12-16T02:38:25.966Z,13.93
2018-12-16T02:40:56.347Z,13.63
2018-12-16T02:43:26.730Z,12.63
2018-12-16T02:45:58.067Z,12.23
2018-12-16T02:48:34.162Z,12.73
2018-12-16T02:51:04.972Z,13.43
2018-12-16T02:53:37.131Z,13.60
2018-12-16T02:56:13.284Z,14.13
2018-12-16T02:58:49.608Z,13.53
2018-12-16T03:01:20.014Z,14.60
2018-12-16T03:03:50.397Z,14.47
2018-12-16T03:06:24.391Z,15.67
2018-12-16T03:08:54.770Z,15.60
2018-12-16T03:11:25.149Z,15.13
2018-12-16T03:13:55.548Z,16.07
2018-12-16T03:16:25.989Z,16.30
2018-12-16T03:18:56.637Z,16.33
2018-12-16T03:21:27.047Z,15.70
2018-12-16T03:23:57.420Z,16.90
2018-12-16T03:26:27.812Z,15.27
2018-12-16T03:29:06.826Z,15.43
2018-12-16T03:31:37.511Z,15.43
2018-12-16T03:34:12.594Z,15.53
2018-12-16T03:36:44.092Z,15.17
2018-12-16T03:39:14.563Z,14.63
2018-12-16T03:41:45.001Z,15.57
2018-12-16T03:44:15.381Z,15.87
2018-12-16T03:46:45.770Z,16.07
2018-12-16T03:49:16.148Z,15.77
2018-12-16T03:51:46.543Z,15.13
2018-12-16T03:54:16.941Z,13.47
2018-12-16T03:56:47.385Z,14.87
2018-12-16T03:59:18.226Z,15.40
2018-12-16T04:01:54.021Z,15.27
2018-12-16T04:04:24.843Z,14.27
2018-12-16T04:06:55.225Z,15.87
2018-12-16T04:09:25.691Z,16.90
2018-12-16T04:11:56.319Z,16.27
2018-12-16T04:14:26.802Z,16.73
2018-12-16T04:16:57.164Z,17.20
2018-12-16T04:19:27.601Z,15.67
2018-12-16T04:21:57.997Z,17.63
2018-12-16T04:24:28.377Z,18.93
2018-12-16T04:26:58.767Z,18.03
2018-12-16T04:29:29.129Z,18.60
2018-12-16T04:32:00.532Z,17.93
2018-12-16T04:34:30.897Z,18.53
2018-12-16T04:37:01.309Z,18.93
2018-12-16T04:39:31.783Z,18.37
2018-12-16T04:42:02.190Z,18.33
2018-12-16T04:44:32.557Z,18.83
2018-12-16T04:47:03.005Z,19.67
2018-12-16T04:49:33.382Z,20.30
2018-12-16T04:52:04.070Z,22.73
2018-12-16T04:54:34.453Z,22.17
2018-12-16T04:57:04.925Z,20.63
2018-12-16T04:59:35.339Z,21.00
2018-12-16T05:02:05.713Z,20.20
2018-12-16T05:04:36.108Z,21.30
2018-12-16T05:07:06.511Z,20.60
2018-12-16T05:09:36.908Z,20.07
2018-12-16T05:15:18.707Z,19.07
2018-12-16T05:17:49.101Z,18.83
2018-12-16T05:20:19.492Z,19.60
2018-12-16T05:22:49.899Z,19.73
2018-12-16T05:25:20.316Z,22.07
2018-12-16T05:27:50.686Z,20.43
2018-12-16T05:30:21.111Z,21.10
2018-12-16T05:32:58.487Z,21.13
2018-12-16T05:35:46.119Z,20.03
2018-12-16T05:38:34.525Z,19.97
2018-12-16T05:41:04.996Z,22.00
2018-12-16T05:43:35.380Z,20.33
2018-12-16T05:46:05.840Z,21.00
2018-12-16T05:48:36.610Z,20.37
2018-12-16T05:51:07.448Z,19.97
2018-12-16T05:53:39.341Z,19.37
2018-12-16T05:56:11.616Z,20.33
2018-12-16T05:58:44.911Z,21.23
2018-12-16T06:01:20.074Z,21.33
2018-12-16T06:04:01.862Z,20.80
2018-12-16T06:06:43.865Z,22.23
2018-12-16T06:09:17.850Z,23.93
2018-12-16T06:11:50.334Z,23.33
2018-12-16T06:14:21.603Z,21.20
2018-12-16T06:16:59.698Z,22.13
2018-12-16T06:19:30.224Z,21.27
2018-12-16T06:22:12.886Z,23.50
2018-12-16T06:24:59.344Z,21.23
2018-12-16T06:27:30.122Z,21.37
2018-12-16T06:30:01.969Z,21.80
2018-12-16T06:32:32.774Z,21.27
2018-12-16T06:35:04.696Z,22.53
2018-12-16T06:37:37.352Z,21.23
2018-12-16T06:40:10.840Z,23.77
2018-12-16T06:42:42.908Z,24.10
2018-12-16T06:45:13.331Z,22.63
2018-12-16T06:47:43.735Z,23.17
2018-12-16T06:50:14.105Z,22.90
2018-12-16T06:52:44.525Z,23.60
2018-12-16T06:55:14.901Z,22.50
2018-12-16T06:58:01.044Z,23.13
2018-12-16T07:00:31.434Z,23.43
2018-12-16T07:03:02.091Z,23.83
2018-12-16T07:05:32.463Z,23.30
2018-12-16T07:08:02.886Z,22.43
2018-12-16T07:10:33.336Z,22.83
2018-12-16T07:13:05.210Z,24.17
2018-12-16T07:15:35.973Z,24.47
2018-12-16T07:18:06.648Z,24.33
2018-12-16T07:20:37.873Z,24.33
2018-12-16T07:23:08.533Z,25.43
2018-12-16T07:25:39.370Z,24.93
2018-12-16T07:28:09.831Z,26.00
2018-12-16T07:30:40.488Z,23.43
2018-12-16T07:33:10.899Z,24.40
2018-12-16T07:35:41.305Z,24.03
2018-12-16T07:38:11.720Z,24.57
2018-12-16T07:40:42.124Z,24.57
2018-12-16T07:43:13.596Z,23.37
2018-12-16T07:45:44.478Z,23.53
2018-12-16T07:48:14.889Z,22.60
2018-12-16T07:50:45.720Z,23.97
2018-12-16T07:53:16.136Z,21.97
2018-12-16T07:55:46.734Z,22.03
2018-12-16T07:58:17.218Z,23.83
2018-12-16T08:00:47.871Z,23.93
2018-12-16T08:03:18.532Z,22.23
2018-12-16T08:05:50.344Z,21.83
2018-12-16T08:08:22.044Z,21.70
2018-12-16T08:10:52.516Z,19.97
2018-12-16T08:13:22.917Z,20.73
2018-12-16T08:15:53.447Z,20.10
2018-12-16T08:18:23.885Z,20.87
2018-12-16T08:20:54.507Z,20.37
2018-12-16T08:23:25.198Z,23.67
2018-12-16T08:25:55.810Z,20.63
2018-12-16T08:28:26.901Z,20.03
2018-12-16T08:30:58.407Z,18.93
2018-12-16T08:33:29.333Z,19.50
2018-12-16T08:36:01.193Z,20.70
2018-12-16T08:38:33.386Z,20.13
2018-12-16T08:41:03.811Z,21.07
2018-12-16T08:43:34.220Z,20.73
2018-12-16T08:46:04.655Z,19.23
2018-12-16T08:48:35.059Z,19.00
2018-12-16T08:51:05.580Z,18.77
2018-12-16T08:53:36.177Z,19.27
2018-12-16T08:56:06.581Z,18.13
2018-12-16T08:58:37.624Z,17.03
2018-12-16T09:01:08.002Z,16.23
2018-12-16T09:03:38.416Z,16.70
2018-12-16T09:06:08.906Z,16.93
2018-12-16T09:08:39.303Z,15.97
2018-12-16T09:11:09.877Z,14.40
2018-12-16T09:13:41.535Z,14.53
2018-12-16T09:16:12.635Z,14.80
2018-12-16T09:18:43.061Z,14.10
2018-12-16T09:21:13.951Z,14.30
2018-12-16T09:23:44.316Z,13.07
2018-12-16T09:26:14.715Z,12.77
2018-12-16T09:28:45.099Z,13.10
2018-12-16T09:31:15.470Z,12.60
2018-12-16T09:33:46.361Z,12.87
2018-12-16T09:36:18.109Z,12.00
2018-12-16T09:38:50.454Z,13.10
2018-12-16T09:41:22.387Z,14.53
2018-12-16T09:43:53.503Z,12.67
2018-12-16T09:46:24.690Z,12.37
2018-12-16T09:48:55.091Z,11.90
2018-12-16T09:51:25.637Z,12.47
2018-12-16T09:53:56.164Z,11.17
2018-12-16T09:56:26.629Z,10.87
2018-12-16T09:58:57.074Z,11.50
2018-12-16T10:01:27.468Z,10.50
2018-12-16T10:03:57.865Z,10.13
2018-12-16T10:06:28.258Z,10.17
2018-12-16T10:08:58.628Z,10.17
2018-12-16T10:11:29.024Z,10.77
2018-12-16T10:13:59.415Z,10.77
2018-12-16T10:16:29.902Z,11.37
2018-12-16T10:19:00.276Z,11.30
2018-12-16T10:21:30.659Z,10.63
2018-12-16T10:24:01.054Z,11.03
2018-12-16T10:26:31.538Z,11.77
2018-12-16T10:29:01.906Z,10.03
2018-12-16T10:31:32.409Z,12.33
2018-12-16T10:34:02.789Z,12.10
2018-12-16T10:36:33.181Z,11.47
2018-12-16T10:39:04.014Z,10.23
2018-12-16T10:41:36.130Z,10.87
2018-12-16T10:44:06.522Z,10.87
2018-12-16T10:46:36.895Z,10.87
2018-12-16T10:49:07.356Z,11.40
2018-12-16T10:51:38.806Z,11.13
2018-12-16T10:54:09.208Z,11.67
2018-12-16T10:56:39.563Z,11.57
2018-12-16T10:59:09.976Z,12.30
2018-12-16T11:01:40.611Z,9.53
2018-12-16T11:04:11.093Z,11.30
2018-12-16T11:06:41.485Z,10.40
2018-12-16T11:09:11.895Z,10.20
2018-12-16T11:11:42.282Z,10.90
2018-12-16T11:14:14.092Z,10.60
2018-12-16T11:16:44.795Z,10.70
2018-12-16T11:19:15.175Z,9.40
2018-12-16T11:21:45.585Z,10.07
2018-12-16T11:24:15.946Z,9.37
2018-12-16T11:26:46.314Z,9.93
2018-12-16T11:29:16.681Z,9.20
2018-12-16T11:31:47.061Z,8.80
2018-12-16T11:34:17.428Z,9.73
2018-12-16T11:36:47.823Z,8.27
2018-12-16T11:39:18.187Z,8.23
2018-12-16T11:41:48.584Z,7.53
2018-12-16T11:44:19.002Z,7.00
2018-12-16T11:46:50.679Z,8.77
2018-12-16T11:49:22.395Z,7.07
2018-12-16T11:51:52.946Z,8.13
2018-12-16T11:54:25.012Z,6.27
2018-12-16T11:56:55.386Z,6.87
2018-12-16T11:59:25.769Z,6.87
2018-12-16T12:01:57.137Z,6.73
2018-12-16T12:04:29.217Z,6.93
2018-12-16T12:06:59.594Z,6.57
2018-12-16T12:09:29.984Z,7.00
2018-12-16T12:12:00.757Z,7.93
2018-12-16T12:14:31.350Z,7.50
2018-12-16T12:17:01.725Z,7.43
2018-12-16T12:19:37.719Z,7.23
2018-12-16T12:22:08.110Z,6.03
2018-12-16T12:24:38.505Z,6.43
2018-12-16T12:27:08.997Z,7.77
2018-12-16T12:29:39.406Z,7.10
2018-12-16T12:32:11.315Z,7.37
2018-12-16T12:34:44.090Z,7.83
2018-12-16T12:37:14.466Z,5.80
2018-12-16T12:39:45.052Z,6.00
2018-12-16T12:42:15.452Z,6.90
2018-12-16T12:44:45.812Z,6.13
2018-12-16T12:47:16.263Z,4.90
2018-12-16T12:49:46.812Z,4.77
2018-12-16T12:52:18.337Z,4.67
2018-12-16T12:54:48.999Z,4.93
2018-12-16T12:57:19.584Z,4.23
2018-12-16T12:59:49.995Z,4.90
2018-12-16T13:02:20.878Z,4.60
2018-12-16T13:04:51.404Z,4.30
2018-12-16T13:07:21.846Z,3.87
2018-12-16T13:09:52.235Z,3.90
2018-12-16T13:12:22.615Z,4.20
2018-12-16T13:14:52.967Z,3.03
2018-12-16T13:17:23.704Z,3.03
2018-12-16T13:19:54.241Z,3.93
2018-12-16T13:22:24.694Z,2.53
2018-12-16T13:25:06.127Z,3.37
2018-12-16T13:27:36.509Z,3.67
2018-12-16T13:30:07.786Z,3.80
2018-12-16T13:32:38.829Z,3.80
2018-12-16T13:35:09.311Z,4.30
2018-12-16T13:37:39.992Z,4.00
2018-12-16T13:40:10.524Z,5.07
2018-12-16T13:42:40.984Z,3.87
2018-12-16T13:45:11.392Z,4.30
2018-12-16T13:47:41.763Z,4.10
2018-12-16T13:50:14.408Z,4.37
2018-12-16T13:52:44.838Z,3.90
2018-12-16T13:55:18.248Z,11.10
2018-12-16T13:57:49.031Z,4.10
2018-12-16T14:00:19.636Z,4.43
2018-12-16T14:02:50.450Z,3.57
2018-12-16T14:05:20.946Z,3.53
2018-12-16T14:07:54.338Z,2.77
2018-12-16T14:10:24.853Z,3.13
2018-12-16T14:12:55.357Z,2.63
2018-12-16T14:15:26.428Z,3.50
2018-12-16T14:17:59.233Z,3.03
2018-12-16T14:20:30.687Z,2.60
2018-12-16T14:23:01.902Z,2.50
2018-12-16T14:25:33.250Z,3.30
2018-12-16T14:28:04.386Z,3.90
2018-12-16T14:30:35.882Z,3.77
2018-12-16T14:33:06.468Z,5.07
2018-12-16T14:35:37.154Z,4.43
2018-12-16T14:38:08.005Z,3.10
2018-12-16T14:40:38.763Z,3.37
2018-12-16T14:43:09.428Z,5.03
2018-12-16T14:45:40.088Z,9.57
2018-12-16T14:48:10.582Z,22.80
2018-12-16T14:50:41.496Z,12.97
2018-12-16T14:53:14.851Z,6.33
2018-12-16T14:55:45.320Z,5.33
2018-12-16T14:58:16.990Z,3.80
2018-12-16T15:00:47.441Z,4.07
2018-12-16T15:03:18.061Z,4.00
2018-12-16T15:05:48.455Z,4.60
2018-12-16T15:08:18.837Z,4.87
2018-12-16T15:10:49.453Z,5.40
2018-12-16T15:13:19.849Z,7.63
2018-12-16T15:15:50.237Z,7.93
2018-12-16T15:18:20.602Z,6.47
2018-12-16T15:20:50.990Z,5.40
2018-12-16T15:23:21.469Z,4.73
2018-12-16T15:25:51.893Z,4.37
2018-12-16T15:28:22.245Z,4.83
2018-12-16T15:30:52.666Z,6.23
2018-12-16T15:33:23.122Z,5.67
2018-12-16T15:35:53.484Z,5.97
2018-12-16T15:38:23.904Z,5.47
2018-12-16T15:40:54.315Z,5.87
2018-12-16T15:43:24.693Z,5.40
2018-12-16T15:45:55.183Z,4.13
2018-12-16T15:48:25.558Z,4.73
2018-12-16T15:50:55.907Z,4.73
2018-12-16T15:53:26.297Z,4.93
2018-12-16T15:55:56.664Z,5.17
2018-12-16T15:58:27.052Z,5.20
2018-12-16T16:00:57.406Z,21.67
2018-12-16T16:03:27.867Z,20.60
2018-12-16T16:05:58.251Z,24.17
2018-12-16T16:08:28.644Z,23.63
2018-12-16T16:10:59.047Z,22.47
2018-12-16T16:13:29.433Z,24.30
2018-12-16T16:15:59.808Z,24.70
2018-12-16T16:18:30.174Z,21.30
2018-12-16T16:21:00.573Z,22.03
2018-12-16T16:23:30.998Z,21.50
2018-12-16T16:26:01.500Z,19.27
2018-12-16T16:28:32.135Z,18.87
2018-12-16T16:31:02.532Z,17.80
2018-12-16T16:33:33.003Z,20.00
2018-12-16T16:36:03.363Z,15.30
2018-12-16T16:38:33.762Z,18.63
2018-12-16T16:41:04.431Z,17.20
2018-12-16T16:43:34.925Z,19.23
2018-12-16T16:46:05.289Z,15.43
2018-12-16T16:48:35.841Z,12.73
2018-12-16T16:51:06.194Z,12.20
2018-12-16T16:53:36.625Z,12.33
2018-12-16T16:56:07.006Z,9.60
2018-12-16T16:58:37.712Z,9.27
2018-12-16T17:01:08.142Z,9.33
2018-12-16T17:03:38.581Z,9.17
2018-12-16T17:06:08.990Z,7.73
2018-12-16T17:08:41.386Z,6.90
2018-12-16T17:11:12.162Z,6.87
2018-12-16T17:13:42.603Z,17.17
2018-12-16T17:16:13.544Z,15.43
2018-12-16T17:18:44.177Z,15.00
2018-12-16T17:21:14.601Z,12.73
2018-12-16T17:23:51.419Z,13.00
2018-12-16T17:26:30.190Z,11.63
2018-12-16T17:29:00.994Z,12.60
2018-12-16T17:31:39.620Z,12.77
2018-12-16T17:34:13.806Z,13.63
2018-12-16T17:36:44.198Z,14.73
2018-12-16T17:39:14.612Z,14.73
2018-12-16T17:41:50.559Z,11.80
2018-12-16T17:44:26.431Z,8.33
2018-12-16T17:46:56.849Z,7.37
2018-12-16T17:49:28.376Z,6.90
2018-12-16T17:51:58.760Z,6.00
2018-12-16T17:54:29.240Z,5.80
2018-12-16T17:57:06.597Z,5.73
2018-12-16T17:59:37.044Z,5.67
2018-12-16T18:02:09.033Z,5.80
2018-12-16T18:04:39.658Z,5.90
2018-12-16T18:07:13.937Z,7.63
2018-12-16T18:09:51.488Z,8.80
2018-12-16T18:12:22.836Z,10.90
2018-12-16T18:14:59.732Z,9.40
2018-12-16T18:17:36.203Z,7.93
2018-12-16T18:20:13.233Z,10.23
2018-12-16T18:22:50.013Z,16.70
2018-12-16T18:25:20.411Z,11.10
2018-12-16T18:27:54.546Z,10.33
2018-12-16T18:30:24.890Z,9.00
2018-12-16T18:32:55.702Z,9.47
2018-12-16T18:35:29.698Z,11.40
2018-12-16T18:38:03.488Z,18.57
2018-12-16T18:40:33.913Z,16.20
2018-12-16T18:43:13.961Z,16.70
2018-12-16T18:45:44.332Z,18.07
2018-12-16T18:48:24.920Z,19.23
2018-12-16T18:51:01.712Z,21.47
2018-12-16T18:53:42.186Z,22.00
2018-12-16T18:56:12.587Z,18.03
2018-12-16T18:58:42.950Z,19.33
2018-12-16T19:01:13.339Z,16.57
2018-12-16T19:06:47.334Z,14.57
2018-12-16T19:09:17.750Z,14.03
2018-12-16T19:11:48.118Z,13.40
2018-12-16T19:14:22.085Z,16.57
2018-12-16T19:16:58.320Z,20.70
2018-12-16T19:19:28.709Z,12.73
2018-12-16T19:22:02.380Z,22.87
2018-12-16T19:24:37.142Z,36.27
2018-12-16T19:27:09.388Z,31.00
2018-12-16T19:29:45.677Z,22.63
2018-12-16T19:32:25.848Z,32.77
2018-12-16T19:35:00.085Z,15.30
2018-12-16T19:37:36.168Z,24.60
2018-12-16T19:40:06.901Z,31.37
2018-12-16T19:42:38.801Z,40.87
2018-12-16T19:45:09.524Z,38.03
2018-12-16T19:47:49.437Z,44.43
2018-12-16T19:50:15.154Z,40.70
2018-12-16T19:52:52.338Z,30.67
2018-12-16T19:55:41.795Z,40.83
2018-12-16T19:58:12.351Z,51.57
2018-12-16T20:00:42.935Z,43.20
2018-12-16T20:03:13.421Z,43.13
2018-12-16T20:05:49.690Z,45.17
2018-12-16T20:08:23.615Z,50.57
2018-12-16T20:10:55.500Z,47.67
2018-12-16T20:13:30.912Z,39.90
2018-12-16T20:16:05.886Z,22.23
2018-12-16T20:18:42.638Z,18.90
2018-12-16T20:21:14.680Z,16.07
2018-12-16T20:23:45.532Z,15.00
2018-12-16T20:26:16.348Z,15.70
2018-12-16T20:28:48.159Z,17.27
2018-12-16T20:31:25.412Z,15.43
2018-12-16T20:33:55.989Z,12.80
2018-12-16T20:36:29.565Z,12.30
2018-12-16T20:39:04.584Z,11.67
2018-12-16T20:41:45.097Z,10.83
2018-12-16T20:44:15.526Z,11.40
2018-12-16T20:47:04.192Z,11.20
2018-12-16T20:49:34.568Z,10.03
2018-12-16T20:52:05.036Z,8.93
2018-12-16T20:54:35.409Z,8.67
2018-12-16T20:57:05.918Z,10.20
2018-12-16T20:59:37.540Z,9.70
2018-12-16T21:02:10.627Z,10.07
2018-12-16T21:04:42.620Z,9.87
2018-12-16T21:07:13.240Z,9.80
2018-12-16T21:09:43.811Z,10.27
2018-12-16T21:12:19.653Z,13.70
2018-12-16T21:14:55.507Z,14.10
2018-12-16T21:17:31.195Z,14.33
2018-12-16T21:20:01.666Z,12.30
2018-12-16T21:22:40.895Z,12.50
2018-12-16T21:25:18.187Z,9.47
2018-12-16T21:27:59.027Z,9.60
2018-12-16T21:30:43.316Z,8.37
2018-12-16T21:33:26.176Z,8.60
2018-12-16T21:36:03.419Z,9.00
2018-12-16T21:38:43.491Z,11.47
2018-12-16T21:41:22.985Z,12.10
2018-12-16T21:44:03.352Z,11.83
2018-12-16T21:46:34.915Z,13.27
2018-12-16T21:52:02.596Z,13.17
2018-12-16T21:54:35.733Z,12.50
2018-12-16T21:57:06.200Z,12.47
2018-12-16T21:59:38.129Z,11.97
2018-12-16T22:02:15.218Z,11.90
2018-12-16T22:04:51.519Z,12.30
2018-12-16T22:07:24.136Z,12.93
2018-12-16T22:09:56.278Z,12.90
2018-12-16T22:12:32.595Z,26.33
2018-12-16T22:18:14.523Z,11.17
2018-12-16T22:20:55.601Z,10.47
2018-12-16T22:23:34.341Z,11.07
2018-12-16T22:26:14.954Z,10.37
2018-12-16T22:28:55.130Z,9.47
2018-12-16T22:31:32.282Z,10.23
2018-12-16T22:34:20.574Z,10.30
2018-12-16T22:37:04.469Z,10.20
2018-12-16T22:39:48.733Z,9.80
2018-12-16T22:42:27.398Z,11.17
2018-12-16T22:45:05.374Z,12.00
2018-12-16T22:47:46.360Z,11.83
2018-12-16T22:53:29.153Z,12.17
2018-12-16T22:56:13.276Z,12.70
2018-12-16T22:58:54.285Z,12.20
2018-12-16T23:01:26.790Z,12.43
2018-12-16T23:04:07.091Z,11.67
2018-12-16T23:06:37.597Z,11.70
2018-12-16T23:09:18.157Z,11.53
2018-12-16T23:11:54.447Z,11.77
2018-12-16T23:14:28.260Z,12.10
2018-12-16T23:17:06.884Z,11.57
2018-12-16T23:19:51.008Z,11.37
2018-12-16T23:22:27.660Z,11.30
2018-12-16T23:25:07.504Z,11.00
2018-12-16T23:27:44.026Z,12.33
2018-12-16T23:30:20.578Z,11.13
2018-12-16T23:32:50.946Z,11.87
2018-12-16T23:35:22.196Z,11.40
2018-12-16T23:38:02.859Z,11.23
2018-12-16T23:40:43.627Z,10.80
2018-12-16T23:43:19.852Z,11.97
2018-12-16T23:45:51.981Z,11.57
2018-12-16T23:48:28.778Z,11.50
2018-12-16T23:51:09.285Z,11.20
2018-12-16T23:53:46.943Z,9.50
2018-12-16T23:56:21.151Z,10.40
2018-12-16T23:58:57.430Z,10.20
